createdAt,value
2018-06-28T00:00:37.486Z,17.72
2018-06-28T00:01:37.467Z,17.78
2018-06-28T00:02:37.469Z,17.72
2018-06-28T00:03:37.485Z,17.74
2018-06-28T00:04:37.217Z,17.7
2018-06-28T00:05:37.220Z,17.78
2018-06-28T00:06:37.468Z,17.74
2018-06-28T00:07:37.472Z,17.71
2018-06-28T00:08:37.485Z,17.64
2018-06-28T00:09:37.239Z,17.57
2018-06-28T00:10:37.219Z,17.57
2018-06-28T00:11:37.226Z,17.52
2018-06-28T00:12:37.467Z,17.45
2018-06-28T00:13:37.236Z,17.52
2018-06-28T00:14:37.223Z,17.49
2018-06-28T00:15:37.279Z,17.36
2018-06-28T00:16:37.475Z,17.49
2018-06-28T00:17:36.977Z,17.44
2018-06-28T00:18:37.240Z,17.41
2018-06-28T00:19:37.240Z,17.38
2018-06-28T00:20:37.223Z,17.54
2018-06-28T00:21:37.229Z,17.34
2018-06-28T00:22:36.981Z,17.38
2018-06-28T00:23:37.244Z,17.33
2018-06-28T00:24:37.473Z,17.38
2018-06-28T00:25:37.213Z,17.41
2018-06-28T00:26:37.483Z,17.33
2018-06-28T00:27:37.214Z,17.34
2018-06-28T00:28:37.229Z,17.24
2018-06-28T00:29:37.481Z,17.2
2018-06-28T00:30:37.315Z,17.22
2018-06-28T00:31:37.217Z,17.16
2018-06-28T00:32:37.476Z,17.19
2018-06-28T00:33:37.217Z,17.15
2018-06-28T00:34:36.969Z,17.15
2018-06-28T00:35:37.225Z,17.15
2018-06-28T00:36:38.277Z,17.2
2018-06-28T00:37:37.223Z,17.09
2018-06-28T00:38:37.222Z,17.12
2018-06-28T00:39:37.222Z,17.19
2018-06-28T00:40:37.231Z,17.16
2018-06-28T00:41:37.217Z,17.12
2018-06-28T00:42:36.959Z,17.16
2018-06-28T00:43:37.527Z,17.19
2018-06-28T00:44:37.223Z,17.16
2018-06-28T00:45:36.973Z,17.19
2018-06-28T00:46:37.233Z,17.14
2018-06-28T00:47:37.484Z,17.14
2018-06-28T00:48:37.473Z,17.19
2018-06-28T00:49:36.965Z,17.19
2018-06-28T00:50:37.220Z,17.16
2018-06-28T00:51:37.475Z,17.16
2018-06-28T00:52:37.466Z,17.09
2018-06-28T00:53:37.218Z,17.14
2018-06-28T00:54:37.471Z,17.14
2018-06-28T00:55:37.219Z,17.08
2018-06-28T00:56:36.979Z,17.15
2018-06-28T00:57:37.471Z,17.02
2018-06-28T00:58:37.481Z,17.01
2018-06-28T00:59:37.475Z,16.99
2018-06-28T01:00:37.021Z,16.96
2018-06-28T01:01:37.473Z,16.97
2018-06-28T01:02:37.485Z,16.94
2018-06-28T01:03:37.480Z,16.94
2018-06-28T01:04:37.479Z,16.9
2018-06-28T01:05:37.223Z,16.84
2018-06-28T01:06:37.219Z,16.84
2018-06-28T01:07:37.217Z,16.83
2018-06-28T01:08:36.965Z,16.78
2018-06-28T01:09:37.213Z,16.87
2018-06-28T01:10:37.478Z,16.74
2018-06-28T01:11:37.475Z,16.76
2018-06-28T01:12:36.968Z,16.74
2018-06-28T01:13:37.483Z,16.74
2018-06-28T01:14:36.961Z,16.71
2018-06-28T01:15:37.579Z,16.71
2018-06-28T01:16:37.481Z,16.69
2018-06-28T01:17:37.222Z,16.68
2018-06-28T01:18:37.237Z,16.71
2018-06-28T01:19:37.480Z,16.71
2018-06-28T01:20:37.222Z,16.53
2018-06-28T01:21:37.459Z,16.6
2018-06-28T01:22:37.480Z,16.61
2018-06-28T01:23:37.211Z,16.58
2018-06-28T01:24:36.957Z,16.58
2018-06-28T01:25:37.500Z,16.53
2018-06-28T01:26:36.960Z,16.51
2018-06-28T01:27:37.516Z,16.56
2018-06-28T01:28:37.475Z,16.54
2018-06-28T01:29:37.214Z,16.54
2018-06-28T01:30:37.510Z,16.51
2018-06-28T01:31:37.465Z,16.51
2018-06-28T01:32:37.216Z,16.53
2018-06-28T01:33:37.463Z,16.53
2018-06-28T01:34:37.460Z,16.5
2018-06-28T01:35:37.491Z,16.5
2018-06-28T01:36:37.204Z,16.51
2018-06-28T01:37:37.479Z,16.46
2018-06-28T01:38:37.477Z,16.42
2018-06-28T01:39:37.214Z,16.47
2018-06-28T01:40:37.225Z,16.43
2018-06-28T01:41:37.454Z,16.46
2018-06-28T01:42:37.463Z,16.41
2018-06-28T01:43:37.474Z,16.35
2018-06-28T01:44:37.466Z,16.36
2018-06-28T01:45:37.498Z,16.31
2018-06-28T01:46:37.461Z,16.28
2018-06-28T01:47:36.966Z,16.23
2018-06-28T01:48:37.472Z,16.12
2018-06-28T01:49:37.456Z,16.31
2018-06-28T01:50:37.466Z,16.29
2018-06-28T01:51:37.453Z,16.28
2018-06-28T01:52:37.213Z,16.29
2018-06-28T01:53:37.474Z,16.15
2018-06-28T01:54:37.457Z,16.23
2018-06-28T01:55:37.457Z,16.26
2018-06-28T01:56:37.232Z,16.23
2018-06-28T01:57:37.211Z,16.2
2018-06-28T01:58:37.491Z,16.2
2018-06-28T01:59:37.467Z,16.15
2018-06-28T02:00:37.505Z,16.17
2018-06-28T02:01:37.220Z,16.12
2018-06-28T02:02:37.454Z,16.15
2018-06-28T02:03:37.456Z,16.15
2018-06-28T02:04:37.448Z,16.2
2018-06-28T02:05:37.532Z,16.13
2018-06-28T02:06:37.999Z,16.08
2018-06-28T02:07:37.194Z,16.12
2018-06-28T02:08:37.457Z,16.08
2018-06-28T02:09:37.466Z,16.09
2018-06-28T02:10:37.470Z,16.08
2018-06-28T02:11:36.940Z,16.1
2018-06-28T02:12:37.443Z,16.09
2018-06-28T02:13:37.208Z,16.09
2018-06-28T02:14:37.480Z,16.17
2018-06-28T02:15:37.484Z,16.13
2018-06-28T02:16:37.440Z,16.17
2018-06-28T02:17:37.444Z,16.1
2018-06-28T02:18:37.449Z,16.04
2018-06-28T02:19:37.200Z,16.09
2018-06-28T02:20:37.441Z,16.02
2018-06-28T02:21:37.452Z,16.04
2018-06-28T02:22:37.197Z,16.04
2018-06-28T02:23:37.195Z,16.04
2018-06-28T02:24:36.934Z,15.92
2018-06-28T02:25:37.199Z,15.9
2018-06-28T02:26:37.194Z,15.88
2018-06-28T02:27:37.189Z,15.76
2018-06-28T02:28:37.191Z,15.77
2018-06-28T02:29:37.440Z,15.73
2018-06-28T02:30:37.211Z,15.7
2018-06-28T02:31:37.182Z,15.65
2018-06-28T02:32:37.195Z,15.64
2018-06-28T02:33:37.444Z,15.75
2018-06-28T02:34:37.430Z,15.62
2018-06-28T02:35:37.449Z,15.65
2018-06-28T02:36:37.176Z,15.76
2018-06-28T02:37:37.444Z,15.76
2018-06-28T02:38:37.439Z,15.58
2018-06-28T02:39:36.923Z,15.65
2018-06-28T02:40:37.255Z,15.61
2018-06-28T02:41:37.173Z,15.61
2018-06-28T02:42:37.437Z,15.55
2018-06-28T02:43:37.446Z,15.61
2018-06-28T02:44:37.425Z,15.51
2018-06-28T02:45:37.181Z,15.55
2018-06-28T02:46:37.179Z,15.59
2018-06-28T02:47:37.426Z,15.54
2018-06-28T02:48:37.463Z,15.54
2018-06-28T02:49:37.427Z,15.49
2018-06-28T02:50:37.421Z,15.62
2018-06-28T02:51:37.436Z,15.75
2018-06-28T02:52:36.931Z,15.73
2018-06-28T02:53:37.429Z,15.75
2018-06-28T02:54:37.417Z,15.79
2018-06-28T02:55:37.416Z,15.8
2018-06-28T02:56:37.186Z,15.83
2018-06-28T02:57:37.157Z,15.88
2018-06-28T02:58:37.431Z,15.91
2018-06-28T02:59:36.918Z,15.88
2018-06-28T03:00:37.426Z,15.88
2018-06-28T03:01:37.416Z,15.86
2018-06-28T03:02:37.413Z,15.88
2018-06-28T03:03:37.154Z,15.82
2018-06-28T03:04:36.896Z,15.86
2018-06-28T03:05:37.410Z,15.82
2018-06-28T03:06:37.160Z,15.79
2018-06-28T03:07:37.162Z,15.83
2018-06-28T03:08:37.448Z,15.91
2018-06-28T03:09:37.415Z,15.83
2018-06-28T03:10:37.415Z,15.9
2018-06-28T03:11:37.413Z,15.84
2018-06-28T03:12:36.908Z,15.83
2018-06-28T03:13:37.431Z,15.9
2018-06-28T03:14:37.418Z,15.84
2018-06-28T03:15:37.400Z,15.84
2018-06-28T03:16:37.153Z,15.91
2018-06-28T03:17:37.416Z,15.9
2018-06-28T03:18:37.150Z,15.91
2018-06-28T03:19:37.453Z,15.9
2018-06-28T03:20:37.137Z,15.94
2018-06-28T03:21:37.143Z,15.84
2018-06-28T03:22:37.138Z,15.84
2018-06-28T03:23:37.133Z,15.82
2018-06-28T03:24:37.159Z,15.83
2018-06-28T03:25:37.134Z,15.83
2018-06-28T03:26:37.140Z,15.83
2018-06-28T03:27:37.402Z,15.86
2018-06-28T03:28:37.126Z,15.83
2018-06-28T03:29:36.881Z,15.83
2018-06-28T03:30:37.410Z,15.8
2018-06-28T03:31:37.391Z,15.83
2018-06-28T03:32:37.407Z,15.83
2018-06-28T03:33:37.416Z,15.68
2018-06-28T03:34:37.380Z,15.8
2018-06-28T03:35:37.197Z,15.7
2018-06-28T03:36:37.143Z,15.73
2018-06-28T03:37:37.456Z,15.75
2018-06-28T03:38:37.390Z,15.8
2018-06-28T03:39:37.161Z,15.88
2018-06-28T03:40:37.157Z,15.83
2018-06-28T03:41:37.380Z,15.8
2018-06-28T03:42:37.372Z,15.8
2018-06-28T03:43:37.130Z,15.76
2018-06-28T03:44:37.124Z,15.72
2018-06-28T03:45:37.387Z,15.75
2018-06-28T03:46:37.409Z,15.75
2018-06-28T03:47:37.116Z,15.73
2018-06-28T03:48:37.111Z,15.64
2018-06-28T03:49:37.363Z,15.62
2018-06-28T03:50:37.388Z,15.73
2018-06-28T03:51:37.109Z,15.73
2018-06-28T03:52:37.372Z,15.65
2018-06-28T03:53:37.394Z,15.65
2018-06-28T03:54:37.114Z,15.76
2018-06-28T03:55:36.863Z,15.77
2018-06-28T03:56:37.111Z,15.76
2018-06-28T03:57:37.113Z,15.75
2018-06-28T03:58:37.104Z,15.77
2018-06-28T03:59:37.363Z,15.76
2018-06-28T04:00:37.105Z,15.8
2018-06-28T04:01:36.856Z,15.73
2018-06-28T04:02:37.366Z,15.59
2018-06-28T04:03:37.361Z,15.68
2018-06-28T04:04:37.092Z,15.58
2018-06-28T04:05:37.111Z,15.61
2018-06-28T04:06:37.217Z,15.68
2018-06-28T04:07:37.360Z,15.79
2018-06-28T04:08:37.351Z,15.77
2018-06-28T04:09:37.095Z,15.79
2018-06-28T04:10:37.099Z,15.75
2018-06-28T04:11:37.346Z,15.8
2018-06-28T04:12:37.347Z,15.8
2018-06-28T04:13:36.837Z,15.82
2018-06-28T04:14:37.090Z,15.9
2018-06-28T04:15:37.121Z,15.94
2018-06-28T04:16:37.464Z,16.08
2018-06-28T04:17:37.106Z,16.15
2018-06-28T04:18:37.090Z,16.29
2018-06-28T04:19:37.104Z,16.41
2018-06-28T04:20:37.343Z,16.5
2018-06-28T04:21:37.338Z,16.65
2018-06-28T04:22:37.092Z,16.75
2018-06-28T04:23:37.096Z,16.87
2018-06-28T04:24:37.354Z,17.15
2018-06-28T04:25:37.085Z,17.36
2018-06-28T04:26:37.371Z,17.49
2018-06-28T04:27:37.216Z,17.56
2018-06-28T04:28:37.348Z,17.74
2018-06-28T04:29:36.837Z,17.9
2018-06-28T04:30:37.382Z,18.16
2018-06-28T04:31:37.351Z,18.41
2018-06-28T04:32:37.092Z,18.65
2018-06-28T04:33:37.097Z,18.98
2018-06-28T04:34:37.095Z,19.22
2018-06-28T04:35:37.100Z,19.41
2018-06-28T04:36:37.102Z,19.54
2018-06-28T04:37:36.852Z,19.69
2018-06-28T04:38:37.375Z,19.69
2018-06-28T04:39:37.110Z,19.69
2018-06-28T04:40:37.368Z,19.69
2018-06-28T04:41:37.360Z,19.84
2018-06-28T04:42:37.375Z,19.85
2018-06-28T04:43:37.386Z,19.95
2018-06-28T04:44:37.390Z,20.14
2018-06-28T04:45:37.403Z,20.24
2018-06-28T04:46:37.118Z,20.21
2018-06-28T04:47:36.879Z,20.21
2018-06-28T04:48:37.124Z,20.26
2018-06-28T04:49:37.396Z,20.43
2018-06-28T04:50:37.142Z,20.55
2018-06-28T04:51:37.143Z,20.63
2018-06-28T04:52:37.399Z,20.88
2018-06-28T04:53:37.210Z,21.06
2018-06-28T04:54:37.481Z,21.14
2018-06-28T04:55:37.159Z,21.37
2018-06-28T04:56:37.415Z,21.43
2018-06-28T04:57:37.411Z,21.58
2018-06-28T04:58:37.426Z,21.48
2018-06-28T04:59:37.439Z,21.55
2018-06-28T05:00:37.441Z,21.66
2018-06-28T05:01:37.457Z,21.83
2018-06-28T05:02:37.440Z,21.79
2018-06-28T05:03:37.199Z,21.88
2018-06-28T05:04:37.032Z,21.82
2018-06-28T05:05:37.477Z,21.85
2018-06-28T05:06:37.457Z,21.79
2018-06-28T05:07:36.967Z,21.7
2018-06-28T05:08:37.479Z,21.52
2018-06-28T05:09:37.493Z,21.52
2018-06-28T05:10:37.474Z,21.43
2018-06-28T05:11:37.479Z,21.3
2018-06-28T05:12:37.299Z,21.18
2018-06-28T05:13:37.538Z,21.37
2018-06-28T05:14:37.264Z,21.64
2018-06-28T05:15:37.247Z,21.99
2018-06-28T05:16:36.995Z,22.26
2018-06-28T05:17:37.258Z,22.6
2018-06-28T05:18:37.381Z,22.84
2018-06-28T05:19:37.539Z,22.84
2018-06-28T05:20:37.362Z,22.55
2018-06-28T05:21:37.530Z,22.2
2018-06-28T05:22:37.534Z,21.83
2018-06-28T05:23:37.284Z,21.62
2018-06-28T05:24:37.303Z,21.46
2018-06-28T05:25:37.052Z,21.2
2018-06-28T05:26:37.303Z,21.07
2018-06-28T05:27:37.301Z,20.93
2018-06-28T05:28:37.589Z,20.66
2018-06-28T05:29:37.572Z,20.55
2018-06-28T05:30:37.575Z,20.51
2018-06-28T05:31:37.319Z,20.5
2018-06-28T05:32:37.086Z,20.39
2018-06-28T05:33:37.078Z,20.36
2018-06-28T05:34:37.405Z,20.55
2018-06-28T05:35:37.336Z,20.81
2018-06-28T05:36:37.352Z,20.95
2018-06-28T05:37:37.097Z,20.95
2018-06-28T05:38:37.609Z,20.72
2018-06-28T05:39:37.606Z,20.72
2018-06-28T05:40:37.633Z,20.63
2018-06-28T05:41:37.391Z,20.48
2018-06-28T05:42:37.613Z,20.41
2018-06-28T05:43:37.685Z,20.47
2018-06-28T05:44:37.363Z,20.48
2018-06-28T05:45:37.690Z,20.52
2018-06-28T05:46:37.401Z,20.72
2018-06-28T05:47:37.636Z,20.88
2018-06-28T05:48:37.137Z,21.24
2018-06-28T05:49:37.645Z,21.73
2018-06-28T05:50:37.406Z,22.14
2018-06-28T05:51:37.409Z,22.81
2018-06-28T05:52:37.392Z,23.23
2018-06-28T05:53:37.386Z,23.71
2018-06-28T05:54:37.145Z,24.03
2018-06-28T05:55:37.406Z,24.51
2018-06-28T05:56:37.419Z,24.92
2018-06-28T05:57:37.664Z,25.18
2018-06-28T05:58:37.165Z,25.28
2018-06-28T05:59:37.700Z,24.96
2018-06-28T06:00:37.688Z,24.74
2018-06-28T06:01:37.465Z,24.4
2018-06-28T06:02:37.446Z,24.02
2018-06-28T06:03:37.455Z,23.73
2018-06-28T06:04:37.704Z,23.43
2018-06-28T06:05:37.722Z,23.32
2018-06-28T06:06:37.471Z,23.15
2018-06-28T06:07:37.470Z,22.78
2018-06-28T06:08:37.737Z,22.45
2018-06-28T06:09:37.732Z,22.13
2018-06-28T06:10:37.743Z,21.83
2018-06-28T06:11:37.498Z,21.66
2018-06-28T06:12:37.754Z,21.64
2018-06-28T06:13:37.528Z,21.57
2018-06-28T06:23:11.187Z,24.54
2018-06-28T06:24:11.480Z,24.86
2018-06-28T06:25:11.102Z,25.17
2018-06-28T06:26:10.958Z,25.58
2018-06-28T06:27:11.474Z,25.96
2018-06-28T06:28:13.677Z,26.56
2018-06-28T06:29:11.219Z,26.93
2018-06-28T06:30:11.322Z,27.65
2018-06-28T06:31:11.230Z,28.27
2018-06-28T06:32:10.969Z,28.67
2018-06-28T06:33:11.244Z,28.76
2018-06-28T06:34:10.990Z,28.63
2018-06-28T06:35:11.377Z,28.93
2018-06-28T06:36:11.256Z,29.04
2018-06-28T06:37:11.502Z,29.02
2018-06-28T06:38:11.516Z,29.29
2018-06-28T06:39:11.533Z,29.22
2018-06-28T06:40:11.490Z,28.88
2018-06-28T06:41:11.027Z,28.44
2018-06-28T06:42:11.555Z,28.27
2018-06-28T06:43:11.290Z,28.22
2018-06-28T06:44:11.302Z,28.49
2018-06-28T06:45:11.508Z,28.72
2018-06-28T06:46:11.565Z,28.94
2018-06-28T06:47:11.325Z,29.13
2018-06-28T06:48:11.329Z,29.01
2018-06-28T06:49:11.587Z,28.93
2018-06-28T06:50:11.880Z,28.76
2018-06-28T06:51:11.637Z,28.91
2018-06-28T06:52:11.363Z,29.05
2018-06-28T06:53:11.652Z,29.71
2018-06-28T06:54:11.639Z,29.97
2018-06-28T06:55:11.434Z,30.35
2018-06-28T06:56:11.400Z,30.27
2018-06-28T06:57:11.436Z,29.97
2018-06-28T06:58:11.783Z,29.97
2018-06-28T06:59:11.463Z,30.19
2018-06-28T07:00:11.844Z,30.51
2018-06-28T07:01:11.693Z,30.77
2018-06-28T07:02:11.437Z,30.91
2018-06-28T07:03:11.893Z,30.91
2018-06-28T07:04:11.456Z,30.9
2018-06-28T07:05:11.534Z,30.72
2018-06-28T07:06:11.491Z,30.24
2018-06-28T07:07:11.738Z,29.6
2018-06-28T07:08:11.737Z,29.2
2018-06-28T07:09:11.752Z,28.79
2018-06-28T07:10:11.773Z,28.45
2018-06-28T07:11:11.794Z,28.33
2018-06-28T07:12:11.524Z,28.22
2018-06-28T07:13:11.784Z,28.11
2018-06-28T07:14:11.796Z,28.12
2018-06-28T07:15:11.668Z,28.56
2018-06-28T07:16:11.304Z,28.98
2018-06-28T07:17:11.833Z,29.23
2018-06-28T07:18:11.604Z,28.6
2018-06-28T07:19:11.612Z,28.38
2018-06-28T07:20:11.924Z,28.15
2018-06-28T07:21:11.854Z,27.87
2018-06-28T07:22:11.608Z,27.75
2018-06-28T07:23:12.020Z,27.39
2018-06-28T07:24:11.618Z,27.27
2018-06-28T07:25:12.125Z,27.27
2018-06-28T07:26:11.895Z,27.58
2018-06-28T07:27:11.644Z,27.74
2018-06-28T07:28:14.348Z,27.9
2018-06-28T07:29:11.393Z,28.02
2018-06-28T07:30:11.797Z,28.02
2018-06-28T07:31:11.413Z,27.78
2018-06-28T07:32:11.930Z,27.49
2018-06-28T07:33:12.283Z,27.52
2018-06-28T07:34:11.550Z,27.55
2018-06-28T07:35:11.821Z,27.36
2018-06-28T07:36:11.879Z,27.27
2018-06-28T07:37:11.848Z,27.29
2018-06-28T07:38:11.984Z,27.63
2018-06-28T07:39:11.996Z,28
2018-06-28T07:40:11.821Z,28.42
2018-06-28T07:41:11.484Z,28.59
2018-06-28T07:42:11.542Z,29.01
2018-06-28T07:43:11.778Z,28.98
2018-06-28T07:44:11.801Z,28.93
2018-06-28T07:45:12.100Z,29.19
2018-06-28T07:46:12.058Z,29.68
2018-06-28T07:47:11.788Z,30
2018-06-28T07:48:11.807Z,30.32
2018-06-28T07:49:12.324Z,30.48
2018-06-28T07:50:12.040Z,30.54
2018-06-28T07:51:11.847Z,30.75
2018-06-28T07:52:11.843Z,30.78
2018-06-28T07:53:12.090Z,30.69
2018-06-28T07:54:11.905Z,30.77
2018-06-28T07:55:11.987Z,30.73
2018-06-28T07:56:11.868Z,30.5
2018-06-28T07:57:11.627Z,30.3
2018-06-28T07:58:12.157Z,29.79
2018-06-28T07:59:11.900Z,29.71
2018-06-28T08:00:12.090Z,29.57
2018-06-28T08:01:11.686Z,29.56
2018-06-28T08:02:11.942Z,29.51
2018-06-28T08:03:11.657Z,29.6
2018-06-28T08:04:11.959Z,29.38
2018-06-28T08:05:11.828Z,29.51
2018-06-28T08:06:12.224Z,29.39
2018-06-28T08:07:11.988Z,29.35
2018-06-28T08:08:12.219Z,29.17
2018-06-28T08:09:12.305Z,29.05
2018-06-28T08:10:12.502Z,29.04
2018-06-28T08:11:11.996Z,29.05
2018-06-28T08:12:11.995Z,28.79
2018-06-28T08:13:11.747Z,28.94
2018-06-28T08:14:12.043Z,28.74
2018-06-28T08:15:12.005Z,28.52
2018-06-28T08:16:12.030Z,28.08
2018-06-28T08:17:12.256Z,27.63
2018-06-28T08:18:12.328Z,27.26
2018-06-28T08:19:12.024Z,27.1
2018-06-28T08:20:11.937Z,27.11
2018-06-28T08:21:12.287Z,27.36
2018-06-28T08:22:12.305Z,27.7
2018-06-28T08:23:12.064Z,27.92
2018-06-28T08:24:12.067Z,28.1
2018-06-28T08:25:12.428Z,28.2
2018-06-28T08:26:12.087Z,28.25
2018-06-28T08:27:12.330Z,28.15
2018-06-28T08:28:12.131Z,28.17
2018-06-28T08:29:12.348Z,28.39
2018-06-28T08:30:11.917Z,28.51
2018-06-28T08:31:12.111Z,28.66
2018-06-28T08:32:12.120Z,28.39
2018-06-28T08:33:12.145Z,27.87
2018-06-28T08:34:11.883Z,27.25
2018-06-28T08:35:12.624Z,26.9
2018-06-28T08:36:12.275Z,26.56
2018-06-28T08:37:12.152Z,25.96
2018-06-28T08:38:12.441Z,25.65
2018-06-28T08:39:12.425Z,25.46
2018-06-28T08:40:12.614Z,25.38
2018-06-28T08:41:12.172Z,25.53
2018-06-28T08:42:12.431Z,25.43
2018-06-28T08:43:11.949Z,25.46
2018-06-28T08:44:12.241Z,25.48
2018-06-28T08:45:12.687Z,25.17
2018-06-28T08:46:12.205Z,24.91
2018-06-28T08:47:12.463Z,24.86
2018-06-28T08:48:12.474Z,24.8
2018-06-28T08:49:12.648Z,24.78
2018-06-28T08:50:12.591Z,24.74
2018-06-28T08:51:12.245Z,24.65
2018-06-28T08:52:12.490Z,24.66
2018-06-28T08:53:12.495Z,24.66
2018-06-28T08:54:12.515Z,24.54
2018-06-28T08:55:12.289Z,24.61
2018-06-28T08:56:12.256Z,24.84
2018-06-28T08:57:12.512Z,24.85
2018-06-28T08:58:12.580Z,25.08
2018-06-28T08:59:16.273Z,25.11
2018-06-28T09:00:12.705Z,24.95
2018-06-28T09:01:12.540Z,24.8
2018-06-28T09:02:12.290Z,24.66
2018-06-28T09:03:12.305Z,24.57
2018-06-28T09:04:12.580Z,24.6
2018-06-28T09:05:12.649Z,24.54
2018-06-28T09:06:12.565Z,24.47
2018-06-28T09:07:12.054Z,24.2
2018-06-28T09:08:12.058Z,24.17
2018-06-28T09:09:12.591Z,24.05
2018-06-28T09:10:12.350Z,23.91
2018-06-28T09:11:12.582Z,23.8
2018-06-28T09:12:12.330Z,23.63
2018-06-28T09:13:12.333Z,23.68
2018-06-28T09:14:12.602Z,23.63
2018-06-28T09:15:12.776Z,23.56
2018-06-28T09:16:12.604Z,23.58
2018-06-28T09:17:12.109Z,23.55
2018-06-28T09:18:12.098Z,23.61
2018-06-28T09:19:12.348Z,23.56
2018-06-28T09:20:12.442Z,23.44
2018-06-28T09:21:12.363Z,23.59
2018-06-28T09:22:12.369Z,23.59
2018-06-28T09:23:12.933Z,23.81
2018-06-28T09:24:12.388Z,23.96
2018-06-28T09:25:12.163Z,24.26
2018-06-28T09:26:12.651Z,24.47
2018-06-28T09:27:12.650Z,24.47
2018-06-28T09:28:12.159Z,24.65
2018-06-28T09:29:12.653Z,24.68
2018-06-28T09:30:12.470Z,24.78
2018-06-28T09:31:12.673Z,24.85
2018-06-28T09:32:12.152Z,25.01
2018-06-28T09:33:12.668Z,24.92
2018-06-28T09:34:12.172Z,24.92
2018-06-28T09:35:12.609Z,24.92
2018-06-28T09:36:12.683Z,25.11
2018-06-28T09:37:12.444Z,25.23
2018-06-28T09:38:12.437Z,25.22
2018-06-28T09:39:12.481Z,25.25
2018-06-28T09:40:12.516Z,25.1
2018-06-28T09:41:12.721Z,24.84
2018-06-28T09:42:12.220Z,24.76
2018-06-28T09:43:12.747Z,24.7
2018-06-28T09:44:12.469Z,24.55
2018-06-28T09:45:12.696Z,24.53
2018-06-28T09:46:12.725Z,24.29
2018-06-28T09:47:12.481Z,24.2
2018-06-28T09:48:12.502Z,24.24
2018-06-28T09:49:12.520Z,24.47
2018-06-28T09:50:12.990Z,24.68
2018-06-28T09:51:12.507Z,24.76
2018-06-28T09:52:12.526Z,24.78
2018-06-28T09:53:12.267Z,24.88
2018-06-28T09:54:12.523Z,24.88
2018-06-28T09:55:12.736Z,24.88
2018-06-28T09:56:12.783Z,24.85
2018-06-28T09:57:12.793Z,24.88
2018-06-28T09:58:12.794Z,24.92
2018-06-28T09:59:12.534Z,25.04
2018-06-28T10:00:12.812Z,25.23
2018-06-28T10:01:12.799Z,25.46
2018-06-28T10:02:12.301Z,25.65
2018-06-28T10:03:12.826Z,25.81
2018-06-28T10:04:12.807Z,25.8
2018-06-28T10:05:12.985Z,25.84
2018-06-28T10:06:12.572Z,25.91
2018-06-28T10:07:12.330Z,25.72
2018-06-28T10:08:12.600Z,25.6
2018-06-28T10:09:12.595Z,25.62
2018-06-28T10:10:12.854Z,25.81
2018-06-28T10:11:12.598Z,26.1
2018-06-28T10:12:12.360Z,26.44
2018-06-28T10:13:12.948Z,26.53
2018-06-28T10:14:12.865Z,26.68
2018-06-28T10:15:12.692Z,26.92
2018-06-28T10:16:12.899Z,26.92
2018-06-28T10:17:12.881Z,27.05
2018-06-28T10:18:13.264Z,26.88
2018-06-28T10:19:12.891Z,26.51
2018-06-28T10:20:12.909Z,26.1
2018-06-28T10:21:12.908Z,25.85
2018-06-28T10:22:12.648Z,25.66
2018-06-28T10:53:44.940Z,23.51
2018-06-28T10:54:44.389Z,23.46
2018-06-28T10:55:44.633Z,23.39
2018-06-28T10:56:44.639Z,23.27
2018-06-28T10:57:44.908Z,23.2
2018-06-28T10:58:44.393Z,23.15
2018-06-28T10:59:44.643Z,23.06
2018-06-28T11:00:44.923Z,22.99
2018-06-28T11:01:44.797Z,22.94
2018-06-28T11:02:44.641Z,22.88
2018-06-28T11:03:45.445Z,22.83
2018-06-28T11:04:44.651Z,22.75
2018-06-28T11:05:44.643Z,22.81
2018-06-28T11:06:44.651Z,22.75
2018-06-28T11:07:44.920Z,22.69
2018-06-28T11:08:45.053Z,22.66
2018-06-28T11:09:44.661Z,22.68
2018-06-28T11:10:44.937Z,22.55
2018-06-28T11:11:44.980Z,22.38
2018-06-28T11:12:44.938Z,22.29
2018-06-28T11:13:44.951Z,22.08
2018-06-28T11:14:44.941Z,21.91
2018-06-28T11:15:45.142Z,21.7
2018-06-28T11:16:44.686Z,21.62
2018-06-28T11:17:44.684Z,21.51
2018-06-28T11:18:45.086Z,21.33
2018-06-28T11:19:44.688Z,21.25
2018-06-28T11:20:44.997Z,21.27
2018-06-28T11:21:44.425Z,21.33
2018-06-28T11:22:44.714Z,21.36
2018-06-28T11:23:44.690Z,21.39
2018-06-28T11:24:44.957Z,21.52
2018-06-28T11:25:44.700Z,21.6
2018-06-28T11:26:45.257Z,21.57
2018-06-28T11:27:44.963Z,21.76
2018-06-28T11:28:44.714Z,21.88
2018-06-28T11:29:44.444Z,21.96
2018-06-28T11:30:44.709Z,22.06
2018-06-28T11:31:44.462Z,22.13
2018-06-28T11:32:45.010Z,22.08
2018-06-28T11:33:44.977Z,22.2
2018-06-28T11:34:44.457Z,22.18
2018-06-28T11:35:44.977Z,22.23
2018-06-28T11:36:44.975Z,22.36
2018-06-28T11:37:44.730Z,22.39
2018-06-28T11:38:44.735Z,22.25
2018-06-28T11:39:44.735Z,22.45
2018-06-28T11:40:44.731Z,22.48
2018-06-28T11:41:44.854Z,22.6
2018-06-28T11:42:44.836Z,22.57
2018-06-28T11:43:44.735Z,22.66
2018-06-28T11:44:45.002Z,22.65
2018-06-28T11:45:45.004Z,22.69
2018-06-28T11:46:45.042Z,22.78
2018-06-28T11:47:45.025Z,22.84
2018-06-28T11:48:44.773Z,22.87
2018-06-28T11:49:45.048Z,22.99
2018-06-28T11:50:45.037Z,23.08
2018-06-28T11:51:44.788Z,23.18
2018-06-28T11:52:44.778Z,23.37
2018-06-28T11:53:46.368Z,23.56
2018-06-28T11:54:45.064Z,23.71
2018-06-28T11:55:45.074Z,23.96
2018-06-28T11:56:44.791Z,24.03
2018-06-28T11:57:44.836Z,24.14
2018-06-28T11:58:45.858Z,24.26
2018-06-28T11:59:45.055Z,24.3
2018-06-28T12:00:44.808Z,24.3
2018-06-28T12:01:45.074Z,24.3
2018-06-28T12:02:44.565Z,24.28
2018-06-28T12:03:45.866Z,24.29
2018-06-28T12:04:44.553Z,24.28
2018-06-28T12:05:44.836Z,24.2
2018-06-28T12:06:44.824Z,24.03
2018-06-28T12:07:44.840Z,23.92
2018-06-28T12:08:45.097Z,23.95
2018-06-28T12:09:44.860Z,23.93
2018-06-28T12:10:45.095Z,23.91
2018-06-28T12:11:45.089Z,23.98
2018-06-28T12:12:44.587Z,24.01
2018-06-28T12:13:44.870Z,24.06
2018-06-28T12:14:45.117Z,24.06
2018-06-28T12:15:44.925Z,23.98
2018-06-28T12:16:45.115Z,23.98
2018-06-28T12:17:45.113Z,23.86
2018-06-28T12:18:45.129Z,23.81
2018-06-28T12:19:45.177Z,23.68
2018-06-28T12:20:44.879Z,23.62
2018-06-28T12:21:44.880Z,23.59
2018-06-28T12:22:44.632Z,23.5
2018-06-28T12:23:45.155Z,23.44
2018-06-28T12:24:44.922Z,23.48
2018-06-28T12:25:45.147Z,23.46
2018-06-28T12:26:45.159Z,23.48
2018-06-28T12:27:44.937Z,23.39
2018-06-28T12:28:44.912Z,23.48
2018-06-28T12:29:45.154Z,23.44
2018-06-28T12:30:44.935Z,23.37
2018-06-28T12:31:44.679Z,23.4
2018-06-28T12:32:44.953Z,23.46
2018-06-28T12:33:44.943Z,23.39
2018-06-28T12:34:45.206Z,23.31
2018-06-28T12:35:44.686Z,23.17
2018-06-28T12:36:44.689Z,23.12
2018-06-28T12:37:45.215Z,23.17
2018-06-28T12:38:44.687Z,23.15
2018-06-28T12:39:45.216Z,23.17
2018-06-28T12:40:45.305Z,23.21
2018-06-28T12:41:45.209Z,23.17
2018-06-28T12:42:44.960Z,23.21
2018-06-28T12:43:44.984Z,23.09
2018-06-28T12:44:44.992Z,22.93
2018-06-28T12:45:45.227Z,22.99
2018-06-28T12:46:45.232Z,22.96
2018-06-28T12:47:45.243Z,22.9
2018-06-28T12:48:44.720Z,22.84
2018-06-28T12:49:45.245Z,22.75
2018-06-28T12:50:45.267Z,22.6
2018-06-28T12:51:44.997Z,22.65
2018-06-28T12:52:45.250Z,22.7
2018-06-28T12:53:45.028Z,22.76
2018-06-28T12:54:45.025Z,22.84
2018-06-28T12:55:45.035Z,22.99
2018-06-28T12:56:45.032Z,23.09
2018-06-28T12:57:45.060Z,23.13
2018-06-28T12:58:45.258Z,23.32
2018-06-28T12:59:44.783Z,23.37
2018-06-28T13:00:45.105Z,23.36
2018-06-28T13:01:45.306Z,23.47
2018-06-28T13:02:45.048Z,23.47
2018-06-28T13:03:45.273Z,23.4
2018-06-28T13:04:45.296Z,23.25
2018-06-28T13:05:45.113Z,23.21
2018-06-28T13:06:45.067Z,23.17
2018-06-28T13:07:45.069Z,23.13
2018-06-28T13:08:45.310Z,23.09
2018-06-28T13:09:45.050Z,23.09
2018-06-28T13:10:45.068Z,23.08
2018-06-28T13:11:45.082Z,22.96
2018-06-28T13:12:45.197Z,23.08
2018-06-28T13:13:44.892Z,23.02
2018-06-28T13:14:45.071Z,23.13
2018-06-28T13:15:45.062Z,23.13
2018-06-28T13:16:45.329Z,23.15
2018-06-28T13:17:45.086Z,23.13
2018-06-28T13:18:45.566Z,23.17
2018-06-28T13:19:45.089Z,23.18
2018-06-28T13:20:45.104Z,23.1
2018-06-28T13:21:45.090Z,23.1
2018-06-28T13:22:45.093Z,23.12
2018-06-28T13:23:45.105Z,23.1
2018-06-28T13:24:45.514Z,22.94
2018-06-28T13:25:45.119Z,22.98
2018-06-28T13:26:45.353Z,22.94
2018-06-28T13:27:45.135Z,23.03
2018-06-28T13:28:45.637Z,23
2018-06-28T13:29:45.372Z,22.83
2018-06-28T13:30:44.880Z,22.93
2018-06-28T13:31:45.164Z,23
2018-06-28T13:32:45.393Z,22.99
2018-06-28T13:33:45.210Z,22.98
2018-06-28T13:34:45.148Z,23